Time;durP1;ratioP1;P1;durP2;ratioP2;P2;SDS_P1;SDS_P2;PMS_P1;PMS_P2;Temp;Humidity;BMP_temperature;BMP_pressure;BME280_temperature;BME280_humidity;BME280_pressure;Samples;Min_cycle;Max_cycle;Signal;HPM_P1;HPM_P2
2021/12/19 00:00:48;;;;;;;23.30;10.93;;;;;;;;;;5014534;28;20025;-68
2021/12/19 00:11:09;;;;;;;16.35;7.10;;;;;;;;;;5030874;28;20498;-69
2021/12/19 00:13:36;;;;;;;24.17;10.98;;;;;;;;;;5030397;28;20021;-66
2021/12/19 00:16:02;;;;;;;17.77;8.27;;;;;;;;;;5030988;28;20026;-68
2021/12/19 00:18:28;;;;;;;22.45;9.48;;;;;;;;;;5029761;28;20025;-67
2021/12/19 00:20:54;;;;;;;17.85;6.10;;;;;;;;;;5031281;28;20021;-68
2021/12/19 00:23:20;;;;;;;11.95;6.38;;;;;;;;;;5022960;28;20018;-67
2021/12/19 00:25:46;;;;;;;15.95;7.45;;;;;;;;;;5021551;28;20056;-68
2021/12/19 00:28:12;;;;;;;23.55;10.68;;;;;;;;;;5016746;28;20084;-67
2021/12/19 00:30:38;;;;;;;15.80;7.07;;;;;;;;;;5031264;28;20099;-67
2021/12/19 00:33:04;;;;;;;12.07;6.03;;;;;;;;;;5019084;28;20487;-68
2021/12/19 00:35:30;;;;;;;18.88;9.75;;;;;;;;;;5024401;28;20028;-68
2021/12/19 00:37:56;;;;;;;16.15;8.98;;;;;;;;;;5034102;28;20037;-68
2021/12/19 00:40:22;;;;;;;17.92;8.02;;;;;;;;;;5018396;28;20026;-68
2021/12/19 00:42:52;;;;;;;15.90;8.20;;;;;;;;;;5030656;28;20472;-68
2021/12/19 00:45:31;;;;;;;19.65;9.48;;;;;;;;;;5016992;28;20037;-68
2021/12/19 00:47:57;;;;;;;16.25;8.50;;;;;;;;;;5034051;28;20033;-68
2021/12/19 00:50:24;;;;;;;18.33;8.52;;;;;;;;;;5033986;28;20391;-68
2021/12/19 00:52:49;;;;;;;17.30;8.80;;;;;;;;;;5033440;28;20112;-68
2021/12/19 00:55:19;;;;;;;31.73;14.85;;;;;;;;;;5027151;28;20037;-68
2021/12/19 00:57:46;;;;;;;15.68;8.07;;;;;;;;;;5024647;28;20030;-68
2021/12/19 01:00:13;;;;;;;12.10;7.15;;;;;;;;;;5034143;28;20147;-68
2021/12/19 01:02:39;;;;;;;17.45;9.05;;;;;;;;;;5032314;28;20494;-67
2021/12/19 01:05:05;;;;;;;18.60;8.65;;;;;;;;;;5028415;28;20152;-68
2021/12/19 01:07:31;;;;;;;21.75;11.13;;;;;;;;;;5023197;28;20032;-68
2021/12/19 01:09:58;;;;;;;14.40;8.05;;;;;;;;;;5021222;28;20032;-68
2021/12/19 01:12:25;;;;;;;14.77;8.30;;;;;;;;;;5030150;28;20029;-68
2021/12/19 01:14:51;;;;;;;20.73;10.05;;;;;;;;;;5032974;28;20022;-69
2021/12/19 01:17:17;;;;;;;23.55;10.30;;;;;;;;;;5033541;28;20061;-68
2021/12/19 01:19:45;;;;;;;14.02;8.85;;;;;;;;;;5032346;28;20099;-67
2021/12/19 01:22:11;;;;;;;16.65;7.28;;;;;;;;;;5033964;28;20079;-68
2021/12/19 01:24:37;;;;;;;18.33;7.72;;;;;;;;;;5032842;28;20448;-68
2021/12/19 01:27:04;;;;;;;14.85;8.30;;;;;;;;;;5033389;28;20040;-68
2021/12/19 01:29:30;;;;;;;16.60;9.15;;;;;;;;;;5025030;28;20076;-69
2021/12/19 01:31:56;;;;;;;19.67;7.68;;;;;;;;;;5040919;28;20474;-69
2021/12/19 01:34:22;;;;;;;17.40;8.18;;;;;;;;;;5030532;28;20078;-68
2021/12/19 01:36:48;;;;;;;19.88;10.52;;;;;;;;;;5032647;28;20041;-68
2021/12/19 01:39:15;;;;;;;12.45;7.15;;;;;;;;;;5033219;28;20638;-68
2021/12/19 01:41:48;;;;;;;17.75;9.13;;;;;;;;;;5032437;28;20053;-68
2021/12/19 01:44:14;;;;;;;20.90;8.82;;;;;;;;;;5036767;28;20021;-68
2021/12/19 01:46:40;;;;;;;14.60;7.40;;;;;;;;;;5034693;28;20491;-69
2021/12/19 01:49:06;;;;;;;15.43;8.50;;;;;;;;;;5031463;28;20104;-69
2021/12/19 01:51:32;;;;;;;18.65;9.30;;;;;;;;;;5024098;28;20101;-68
2021/12/19 01:53:58;;;;;;;17.83;10.23;;;;;;;;;;5023539;28;20037;-68
2021/12/19 01:56:24;;;;;;;19.70;11.70;;;;;;;;;;5016830;28;20494;-68
2021/12/19 01:58:50;;;;;;;23.60;10.35;;;;;;;;;;5029455;28;20108;-68
2021/12/19 02:01:16;;;;;;;16.70;8.65;;;;;;;;;;5019831;28;20029;-68
2021/12/19 02:03:42;;;;;;;17.17;10.57;;;;;;;;;;5031963;28;20101;-68
2021/12/19 02:06:08;;;;;;;12.85;8.05;;;;;;;;;;5019087;28;20026;-68
2021/12/19 02:08:34;;;;;;;16.65;8.82;;;;;;;;;;5029311;28;20029;-67
2021/12/19 02:11:00;;;;;;;13.68;8.63;;;;;;;;;;5017348;28;20096;-68
2021/12/19 02:13:26;;;;;;;15.40;8.80;;;;;;;;;;5031821;28;20391;-68
2021/12/19 02:15:52;;;;;;;15.77;9.38;;;;;;;;;;5032169;28;20152;-67
2021/12/19 02:18:19;;;;;;;17.65;10.02;;;;;;;;;;5032252;28;20487;-66
2021/12/19 02:20:50;;;;;;;16.55;8.88;;;;;;;;;;5032291;28;20018;-67
2021/12/19 02:23:16;;;;;;;14.98;8.93;;;;;;;;;;5031634;28;20021;-67
2021/12/19 02:25:42;;;;;;;14.95;7.93;;;;;;;;;;5021828;28;20036;-68
2021/12/19 02:28:08;;;;;;;20.25;11.93;;;;;;;;;;5026170;28;20025;-67
2021/12/19 02:30:34;;;;;;;17.33;9.73;;;;;;;;;;5015689;28;20022;-68
2021/12/19 02:33:00;;;;;;;22.17;11.88;;;;;;;;;;5029288;28;20049;-67
2021/12/19 02:35:30;;;;;;;22.70;11.00;;;;;;;;;;5021999;28;20051;-67
2021/12/19 02:38:28;;;;;;;;;;;;;;;;;;;;;
2021/12/19 02:48:34;;;;;;;16.30;8.63;;;;;;;;;;5032247;28;20036;-67
2021/12/19 02:51:01;;;;;;;14.95;8.95;;;;;;;;;;5032188;28;20026;-68
2021/12/19 02:53:27;;;;;;;16.20;9.15;;;;;;;;;;5028610;28;20021;-68
2021/12/19 02:55:53;;;;;;;13.50;8.70;;;;;;;;;;5031918;28;20368;-67
2021/12/19 02:58:19;;;;;;;18.00;9.82;;;;;;;;;;5032102;28;20487;-67
2021/12/19 03:00:45;;;;;;;16.63;9.55;;;;;;;;;;5031726;28;20049;-68
2021/12/19 03:03:11;;;;;;;15.88;8.90;;;;;;;;;;5030766;28;20017;-68
2021/12/19 03:05:37;;;;;;;13.63;9.15;;;;;;;;;;5031336;28;20451;-67
2021/12/19 03:08:07;;;;;;;14.07;8.52;;;;;;;;;;5030272;28;20029;-67
2021/12/19 03:13:33;;;;;;;15.63;8.95;;;;;;;;;;5030605;28;20372;-67
2021/12/19 03:18:44;;;;;;;17.35;8.95;;;;;;;;;;5028309;28;20041;-67
2021/12/19 03:21:13;;;;;;;16.38;8.80;;;;;;;;;;5017638;28;20079;-67
2021/12/19 03:23:40;;;;;;;15.60;9.05;;;;;;;;;;5030540;28;20013;-67
2021/12/19 03:26:06;;;;;;;12.30;8.63;;;;;;;;;;5031251;28;20043;-67
2021/12/19 03:28:32;;;;;;;20.95;8.70;;;;;;;;;;5031601;28;20026;-67
2021/12/19 03:30:58;;;;;;;13.27;8.07;;;;;;;;;;5026942;28;20034;-68
2021/12/19 03:33:24;;;;;;;13.75;8.25;;;;;;;;;;5031992;28;20017;-67
2021/12/19 03:35:51;;;;;;;15.55;8.20;;;;;;;;;;5021021;28;20095;-67
2021/12/19 03:38:17;;;;;;;19.50;8.65;;;;;;;;;;5030962;28;20033;-67
2021/12/19 03:40:51;;;;;;;17.50;8.85;;;;;;;;;;5014703;28;20380;-67
2021/12/19 03:43:19;;;;;;;13.07;7.55;;;;;;;;;;5030216;28;20052;-67
2021/12/19 03:45:45;;;;;;;12.25;7.13;;;;;;;;;;5030571;28;20072;-67
2021/12/19 03:48:13;;;;;;;13.77;8.30;;;;;;;;;;5030945;28;20483;-68
2021/12/19 03:50:44;;;;;;;12.65;7.47;;;;;;;;;;5031168;28;20556;-67
2021/12/19 03:53:10;;;;;;;10.32;6.47;;;;;;;;;;5028587;28;20503;-67
2021/12/19 03:55:36;;;;;;;17.35;7.72;;;;;;;;;;5031247;28;20021;-67
2021/12/19 03:58:03;;;;;;;11.32;6.53;;;;;;;;;;5030500;28;20021;-67
2021/12/19 04:00:31;;;;;;;10.95;5.85;;;;;;;;;;5030514;28;20017;-67
2021/12/19 04:02:58;;;;;;;16.05;7.18;;;;;;;;;;5030124;28;20383;-68
2021/12/19 04:05:25;;;;;;;14.20;7.55;;;;;;;;;;5034163;28;20028;-67
2021/12/19 04:07:51;;;;;;;16.92;8.57;;;;;;;;;;5023143;28;20480;-67
2021/12/19 04:10:17;;;;;;;11.90;7.05;;;;;;;;;;5045610;28;20430;-68
2021/12/19 04:12:44;;;;;;;14.02;8.27;;;;;;;;;;5017897;28;20037;-67
2021/12/19 04:15:11;;;;;;;10.38;8.15;;;;;;;;;;5028698;28;20117;-67
2021/12/19 04:17:37;;;;;;;14.52;9.45;;;;;;;;;;5034647;28;20373;-68
2021/12/19 04:20:03;;;;;;;18.88;9.13;;;;;;;;;;5034555;28;20022;-68
2021/12/19 04:22:30;;;;;;;14.00;9.10;;;;;;;;;;5018222;28;20459;-68
2021/12/19 04:24:56;;;;;;;17.15;9.45;;;;;;;;;;5033971;28;20048;-68
2021/12/19 04:27:22;;;;;;;12.88;7.82;;;;;;;;;;5049572;22;20049;-68
2021/12/19 04:29:50;;;;;;;14.60;9.15;;;;;;;;;;5034328;28;20033;-67
2021/12/19 04:32:17;;;;;;;12.65;8.90;;;;;;;;;;5034744;28;20056;-67
2021/12/19 04:34:44;;;;;;;16.83;8.77;;;;;;;;;;5023878;28;20056;-67
2021/12/19 04:38:14;;;;;;;17.55;8.68;;;;;;;;;;5033047;28;20024;-67
2021/12/19 04:40:12;;;;;;;15.75;9.23;;;;;;;;;;5032302;28;20037;-67
2021/12/19 04:51:15;;;;;;;15.13;8.20;;;;;;;;;;5001903;28;20113;-67
2021/12/19 05:04:13;;;;;;;13.23;8.63;;;;;;;;;;5022777;28;20110;-66
2021/12/19 05:14:38;;;;;;;12.20;7.95;;;;;;;;;;5033036;28;20088;-67
2021/12/19 05:17:08;;;;;;;14.23;7.65;;;;;;;;;;5032378;28;20027;-66
2021/12/19 05:19:49;;;;;;;18.35;7.82;;;;;;;;;;5027072;28;20030;-68
2021/12/19 05:22:15;;;;;;;14.35;8.15;;;;;;;;;;5027169;28;20029;-67
2021/12/19 05:25:00;;;;;;;12.25;7.57;;;;;;;;;;5032892;28;20049;-67
2021/12/19 05:27:26;;;;;;;10.93;6.57;;;;;;;;;;5033248;28;20446;-68
2021/12/19 05:29:52;;;;;;;12.73;7.32;;;;;;;;;;5033094;28;20029;-67
2021/12/19 05:32:18;;;;;;;11.05;7.85;;;;;;;;;;5032259;28;20034;-67
2021/12/19 05:34:44;;;;;;;10.35;6.63;;;;;;;;;;5032752;28;20031;-67
2021/12/19 05:45:24;;;;;;;12.38;6.68;;;;;;;;;;5021997;28;20502;-67
2021/12/19 05:47:51;;;;;;;13.05;7.68;;;;;;;;;;5033370;28;20021;-67
2021/12/19 05:50:18;;;;;;;12.10;6.40;;;;;;;;;;5033080;28;20026;-67
2021/12/19 05:52:45;;;;;;;14.30;8.00;;;;;;;;;;5032737;28;20163;-67
2021/12/19 05:55:11;;;;;;;15.02;8.30;;;;;;;;;;5032267;28;20030;-67
2021/12/19 05:57:37;;;;;;;17.00;7.93;;;;;;;;;;5032524;28;20033;-67
2021/12/19 06:00:08;;;;;;;13.95;7.35;;;;;;;;;;5032690;28;20022;-67
2021/12/19 06:02:35;;;;;;;13.57;8.82;;;;;;;;;;5031262;28;20519;-67
2021/12/19 06:05:01;;;;;;;16.70;8.57;;;;;;;;;;5016892;28;20021;-67
2021/12/19 06:07:27;;;;;;;11.82;7.28;;;;;;;;;;5032464;28;20028;-67
2021/12/19 06:09:53;;;;;;;15.35;8.82;;;;;;;;;;5032692;28;20029;-67
2021/12/19 06:12:19;;;;;;;12.35;7.60;;;;;;;;;;5032738;28;20025;-67
2021/12/19 06:14:45;;;;;;;12.35;7.68;;;;;;;;;;5031831;28;20026;-67
2021/12/19 06:17:11;;;;;;;16.25;7.90;;;;;;;;;;5032595;28;20375;-67
2021/12/19 06:19:36;;;;;;;15.00;8.00;;;;;;;;;;5032498;28;20461;-68
2021/12/19 06:22:06;;;;;;;14.02;8.27;;;;;;;;;;5032288;28;20631;-67
2021/12/19 06:24:33;;;;;;;15.02;8.50;;;;;;;;;;5030467;28;20022;-67
2021/12/19 06:26:59;;;;;;;13.13;8.52;;;;;;;;;;5030544;28;20025;-67
2021/12/19 06:29:26;;;;;;;14.13;8.82;;;;;;;;;;5032025;28;20069;-68
2021/12/19 06:31:52;;;;;;;19.25;9.35;;;;;;;;;;5032262;28;20025;-67
2021/12/19 06:34:18;;;;;;;12.70;8.63;;;;;;;;;;5009304;28;20507;-67
2021/12/19 06:36:44;;;;;;;13.38;8.65;;;;;;;;;;5027383;28;20061;-67
2021/12/19 06:39:10;;;;;;;12.18;8.70;;;;;;;;;;5021823;28;20063;-67
2021/12/19 06:41:36;;;;;;;11.60;7.75;;;;;;;;;;5025471;28;20075;-67
2021/12/19 06:44:03;;;;;;;13.32;8.35;;;;;;;;;;5016724;28;20049;-68
2021/12/19 06:46:29;;;;;;;12.18;8.13;;;;;;;;;;5028905;28;20475;-67
2021/12/19 06:48:55;;;;;;;16.52;10.07;;;;;;;;;;5029567;28;20050;-67
2021/12/19 06:51:22;;;;;;;14.75;9.00;;;;;;;;;;5032228;28;20527;-67
2021/12/19 06:53:48;;;;;;;11.85;8.52;;;;;;;;;;5031476;28;20021;-67
2021/12/19 06:56:14;;;;;;;13.68;8.93;;;;;;;;;;5032155;28;20033;-67
2021/12/19 06:58:40;;;;;;;12.65;8.40;;;;;;;;;;5031584;28;20033;-67
2021/12/19 07:01:06;;;;;;;11.40;8.25;;;;;;;;;;5031586;28;20048;-67
2021/12/19 07:03:32;;;;;;;13.02;9.18;;;;;;;;;;5021939;28;20025;-68
2021/12/19 07:05:59;;;;;;;11.38;8.45;;;;;;;;;;5024592;28;20434;-67
2021/12/19 07:08:25;;;;;;;14.13;9.65;;;;;;;;;;5031621;28;20017;-68
2021/12/19 07:10:51;;;;;;;17.40;9.80;;;;;;;;;;5031601;28;20071;-68
2021/12/19 07:13:20;;;;;;;13.65;9.15;;;;;;;;;;5029307;28;20044;-69
2021/12/19 07:15:47;;;;;;;13.77;9.38;;;;;;;;;;5031338;28;20029;-68
2021/12/19 07:18:13;;;;;;;18.40;9.02;;;;;;;;;;5031463;28;20402;-68
2021/12/19 07:20:42;;;;;;;13.77;9.50;;;;;;;;;;5031741;28;20101;-68
2021/12/19 07:23:09;;;;;;;13.13;7.75;;;;;;;;;;5030691;28;20476;-69
2021/12/19 07:25:35;;;;;;;14.85;9.63;;;;;;;;;;5031637;28;20418;-66
2021/12/19 07:28:01;;;;;;;12.75;9.43;;;;;;;;;;5031574;28;20079;-67
2021/12/19 07:30:27;;;;;;;14.68;9.57;;;;;;;;;;5029878;28;20028;-67
2021/12/19 07:32:54;;;;;;;14.52;10.52;;;;;;;;;;5027558;28;20395;-67
2021/12/19 07:35:21;;;;;;;14.80;9.52;;;;;;;;;;5008596;28;20028;-66
2021/12/19 07:37:49;;;;;;;15.90;10.02;;;;;;;;;;5020263;28;20034;-67
2021/12/19 07:40:17;;;;;;;15.55;11.63;;;;;;;;;;5025999;28;20030;-67
2021/12/19 07:42:43;;;;;;;12.63;9.40;;;;;;;;;;5014211;28;20060;-66
2021/12/19 07:45:11;;;;;;;15.40;10.43;;;;;;;;;;5018753;28;20108;-67
2021/12/19 07:47:37;;;;;;;20.88;10.55;;;;;;;;;;5031527;28;20022;-66
2021/12/19 07:50:03;;;;;;;16.95;10.57;;;;;;;;;;5029669;28;20488;-67
2021/12/19 07:52:29;;;;;;;18.88;11.25;;;;;;;;;;5031689;28;20029;-67
2021/12/19 07:54:55;;;;;;;14.85;10.70;;;;;;;;;;5030876;28;20048;-67
2021/12/19 07:57:21;;;;;;;16.02;11.40;;;;;;;;;;5031042;28;20033;-68
2021/12/19 07:59:47;;;;;;;15.18;11.30;;;;;;;;;;5031232;28;20108;-68
2021/12/19 08:02:13;;;;;;;14.30;10.70;;;;;;;;;;5031475;28;20029;-66
2021/12/19 08:04:39;;;;;;;14.73;10.77;;;;;;;;;;5015470;28;20501;-69
2021/12/19 08:07:08;;;;;;;16.60;10.50;;;;;;;;;;5031099;28;20021;-67
2021/12/19 08:09:57;;;;;;;17.08;10.93;;;;;;;;;;5031120;28;20029;-68
2021/12/19 08:12:23;;;;;;;13.95;9.80;;;;;;;;;;5030487;28;20037;-68
2021/12/19 08:14:49;;;;;;;12.50;10.02;;;;;;;;;;5029796;28;20029;-68
2021/12/19 08:17:15;;;;;;;18.67;11.82;;;;;;;;;;5029255;28;20479;-68
2021/12/19 08:19:41;;;;;;;15.13;10.50;;;;;;;;;;5030466;28;20025;-68
2021/12/19 08:22:07;;;;;;;18.80;12.07;;;;;;;;;;5029092;28;20023;-67
2021/12/19 08:24:33;;;;;;;16.48;9.90;;;;;;;;;;5029932;28;20040;-67
2021/12/19 08:26:59;;;;;;;15.23;10.68;;;;;;;;;;5029702;28;20495;-67
2021/12/19 08:29:25;;;;;;;16.70;11.07;;;;;;;;;;5029815;28;20091;-67
2021/12/19 08:31:51;;;;;;;17.23;11.05;;;;;;;;;;5030107;28;20099;-67
2021/12/19 08:34:17;;;;;;;17.65;12.20;;;;;;;;;;5012584;28;20060;-67
2021/12/19 08:36:43;;;;;;;17.70;10.15;;;;;;;;;;5029492;28;20022;-67
2021/12/19 08:39:11;;;;;;;15.88;11.73;;;;;;;;;;5031123;28;20018;-67
2021/12/19 08:41:37;;;;;;;14.70;11.60;;;;;;;;;;5023025;28;20444;-67
2021/12/19 08:44:03;;;;;;;15.75;10.32;;;;;;;;;;5015279;28;20061;-67
2021/12/19 08:46:32;;;;;;;15.52;10.63;;;;;;;;;;5011697;28;20018;-68
2021/12/19 08:48:58;;;;;;;15.90;9.85;;;;;;;;;;5030634;28;20020;-70
2021/12/19 08:51:26;;;;;;;18.98;11.45;;;;;;;;;;5024594;28;20029;-68
2021/12/19 08:53:52;;;;;;;15.77;11.32;;;;;;;;;;5033460;28;20037;-68
2021/12/19 08:56:18;;;;;;;17.20;11.65;;;;;;;;;;5034203;28;20033;-68
2021/12/19 08:58:44;;;;;;;16.50;11.40;;;;;;;;;;5033717;28;20507;-68
2021/12/19 09:01:10;;;;;;;14.98;11.43;;;;;;;;;;5033544;28;20025;-68
2021/12/19 09:03:36;;;;;;;15.10;10.65;;;;;;;;;;5025041;28;20472;-68
2021/12/19 09:06:03;;;;;;;15.60;10.07;;;;;;;;;;5025509;28;20029;-68
2021/12/19 09:08:29;;;;;;;13.25;10.30;;;;;;;;;;5033865;28;20025;-68
2021/12/19 09:10:56;;;;;;;16.95;11.05;;;;;;;;;;5034163;28;20108;-67
2021/12/19 09:13:22;;;;;;;15.25;10.55;;;;;;;;;;5031505;28;20032;-68
2021/12/19 09:15:48;;;;;;;16.83;10.23;;;;;;;;;;5033489;28;20037;-67
2021/12/19 09:18:14;;;;;;;15.63;10.57;;;;;;;;;;5033414;28;20033;-67
2021/12/19 09:20:41;;;;;;;14.48;10.13;;;;;;;;;;5029460;28;20101;-67
2021/12/19 09:23:07;;;;;;;15.38;11.25;;;;;;;;;;5032010;28;20032;-66
2021/12/19 09:25:34;;;;;;;16.85;11.25;;;;;;;;;;5033060;28;20025;-67
2021/12/19 09:28:00;;;;;;;15.90;11.35;;;;;;;;;;5031664;28;20029;-66
2021/12/19 09:30:26;;;;;;;14.75;11.32;;;;;;;;;;5033391;28;20376;-71
2021/12/19 09:32:52;;;;;;;18.75;11.35;;;;;;;;;;5029668;28;20025;-70
2021/12/19 09:35:18;;;;;;;13.77;11.70;;;;;;;;;;5006245;28;20073;-72
2021/12/19 09:37:44;;;;;;;17.30;11.93;;;;;;;;;;5016209;28;20423;-73
2021/12/19 09:40:12;;;;;;;14.77;10.82;;;;;;;;;;5025373;28;20026;-71
2021/12/19 09:42:47;;;;;;;14.82;11.57;;;;;;;;;;5018736;28;20693;-70
2021/12/19 09:45:13;;;;;;;13.63;10.35;;;;;;;;;;5016788;28;20030;-70
2021/12/19 09:47:39;;;;;;;15.50;10.77;;;;;;;;;;5020981;28;20025;-70
2021/12/19 09:50:07;;;;;;;13.65;10.27;;;;;;;;;;5031052;28;20428;-71
2021/12/19 09:52:33;;;;;;;14.25;9.13;;;;;;;;;;5029833;28;20022;-70
2021/12/19 09:54:59;;;;;;;11.70;9.55;;;;;;;;;;5030673;28;20063;-70
2021/12/19 09:57:25;;;;;;;12.60;9.00;;;;;;;;;;5032648;28;20119;-69
2021/12/19 09:59:51;;;;;;;12.00;8.90;;;;;;;;;;5032949;28;20036;-69
2021/12/19 10:02:17;;;;;;;15.93;9.75;;;;;;;;;;5031900;28;20025;-69
2021/12/19 10:04:44;;;;;;;12.57;9.60;;;;;;;;;;5031064;28;20072;-67
2021/12/19 10:07:10;;;;;;;14.25;10.32;;;;;;;;;;5032544;28;20496;-67
2021/12/19 10:09:38;;;;;;;13.30;10.90;;;;;;;;;;5031978;28;20487;-67
2021/12/19 10:12:23;;;;;;;17.10;10.57;;;;;;;;;;5032820;28;20052;-67
2021/12/19 10:14:49;;;;;;;13.52;9.45;;;;;;;;;;5032402;28;20056;-67
2021/12/19 10:17:19;;;;;;;15.43;10.27;;;;;;;;;;5031325;28;20029;-67
2021/12/19 10:19:49;;;;;;;15.20;9.52;;;;;;;;;;5033091;28;20018;-68
2021/12/19 10:22:24;;;;;;;13.98;10.20;;;;;;;;;;5032902;28;20022;-68
2021/12/19 10:24:51;;;;;;;11.73;9.35;;;;;;;;;;5029563;28;20029;-67
2021/12/19 10:27:32;;;;;;;11.93;8.60;;;;;;;;;;5012629;28;20042;-68
2021/12/19 10:29:58;;;;;;;13.77;9.00;;;;;;;;;;5012668;28;20032;-67
2021/12/19 10:32:24;;;;;;;14.32;9.20;;;;;;;;;;5012701;28;20026;-68
2021/12/19 10:34:50;;;;;;;9.35;8.00;;;;;;;;;;5037658;23;20044;-68
2021/12/19 10:37:34;;;;;;;14.68;8.85;;;;;;;;;;5030662;28;20415;-68
2021/12/19 10:40:04;;;;;;;12.88;9.25;;;;;;;;;;5030678;28;20045;-68
2021/12/19 10:42:34;;;;;;;11.82;9.00;;;;;;;;;;5030130;28;20029;-68
2021/12/19 10:47:46;;;;;;;11.50;7.60;;;;;;;;;;5034212;28;20060;-68
2021/12/19 10:50:11;;;;;;;9.75;8.10;;;;;;;;;;5031155;28;20032;-68
2021/12/19 10:52:38;;;;;;;11.25;8.00;;;;;;;;;;5032695;28;20025;-68
2021/12/19 10:55:08;;;;;;;11.50;7.90;;;;;;;;;;5030311;28;20514;-68
2021/12/19 10:57:35;;;;;;;14.10;8.23;;;;;;;;;;5032115;28;20211;-68
2021/12/19 11:00:05;;;;;;;13.07;8.07;;;;;;;;;;5031950;28;20032;-67
2021/12/19 11:02:39;;;;;;;14.75;8.13;;;;;;;;;;5031907;28;20021;-68
2021/12/19 11:05:05;;;;;;;17.23;8.80;;;;;;;;;;5031494;28;20080;-68
2021/12/19 11:07:31;;;;;;;13.18;8.32;;;;;;;;;;5031863;28;20040;-68
2021/12/19 11:09:57;;;;;;;11.63;7.80;;;;;;;;;;5031833;28;20021;-69
2021/12/19 11:12:23;;;;;;;10.75;7.72;;;;;;;;;;5031854;28;20104;-67
2021/12/19 11:14:50;;;;;;;11.32;7.65;;;;;;;;;;5030226;28;20025;-67
2021/12/19 11:17:21;;;;;;;11.63;7.30;;;;;;;;;;5030215;28;20036;-68
2021/12/19 11:19:47;;;;;;;12.77;8.13;;;;;;;;;;5031521;28;20022;-68
2021/12/19 11:22:15;;;;;;;9.93;8.15;;;;;;;;;;5025650;28;20026;-67
2021/12/19 11:24:41;;;;;;;12.02;8.73;;;;;;;;;;5029464;28;20025;-69
2021/12/19 11:27:08;;;;;;;16.45;10.02;;;;;;;;;;5031942;28;20227;-68
2021/12/19 11:29:34;;;;;;;11.63;8.82;;;;;;;;;;5029514;28;20032;-68
2021/12/19 11:32:03;;;;;;;13.68;8.65;;;;;;;;;;5031462;28;20128;-68
2021/12/19 11:34:41;;;;;;;16.63;9.43;;;;;;;;;;5030307;28;20037;-68
2021/12/19 11:37:07;;;;;;;14.13;8.88;;;;;;;;;;5031340;28;20123;-68
2021/12/19 11:39:34;;;;;;;12.32;8.23;;;;;;;;;;5031342;28;20068;-68
2021/12/19 11:42:05;;;;;;;11.93;8.48;;;;;;;;;;5030990;28;20025;-68
2021/12/19 11:44:37;;;;;;;12.15;8.35;;;;;;;;;;5030642;28;20026;-68
2021/12/19 11:47:08;;;;;;;11.07;8.40;;;;;;;;;;5038777;28;20176;-68
2021/12/19 11:49:34;;;;;;;13.80;9.23;;;;;;;;;;5031798;28;20364;-68
2021/12/19 11:52:19;;;;;;;13.25;9.07;;;;;;;;;;5031285;28;20032;-67
2021/12/19 11:55:05;;;;;;;13.52;8.60;;;;;;;;;;5030733;28;20021;-68
2021/12/19 11:57:31;;;;;;;13.30;8.45;;;;;;;;;;5031289;28;20032;-67
2021/12/19 12:00:17;;;;;;;12.27;8.55;;;;;;;;;;5030382;28;20555;-68
2021/12/19 12:02:43;;;;;;;11.23;7.68;;;;;;;;;;5028802;28;20495;-68
2021/12/19 12:05:15;;;;;;;15.07;7.93;;;;;;;;;;5029327;28;20033;-68
2021/12/19 12:08:00;;;;;;;13.32;7.85;;;;;;;;;;5029339;28;20449;-67
2021/12/19 12:10:25;;;;;;;12.18;7.95;;;;;;;;;;5029542;28;20087;-67
2021/12/19 12:12:51;;;;;;;12.35;6.25;;;;;;;;;;5028521;28;20462;-67
2021/12/19 12:15:28;;;;;;;11.52;7.13;;;;;;;;;;5030282;28;20104;-66
2021/12/19 12:17:57;;;;;;;13.70;7.53;;;;;;;;;;5030918;28;20040;-67
2021/12/19 12:20:28;;;;;;;11.68;7.05;;;;;;;;;;5029348;28;20186;-67
2021/12/19 12:22:59;;;;;;;12.05;7.90;;;;;;;;;;5027980;28;20109;-68
2021/12/19 12:25:27;;;;;;;10.75;7.43;;;;;;;;;;5031541;28;20072;-68
2021/12/19 12:27:57;;;;;;;12.00;7.85;;;;;;;;;;5034402;28;20025;-67
2021/12/19 12:30:28;;;;;;;11.67;8.10;;;;;;;;;;5034932;28;20029;-69
2021/12/19 12:32:55;;;;;;;14.98;8.35;;;;;;;;;;5033985;28;20029;-68
2021/12/19 12:35:21;;;;;;;10.70;7.22;;;;;;;;;;5034469;28;20076;-68
2021/12/19 12:37:48;;;;;;;19.38;9.77;;;;;;;;;;5032936;28;20121;-68
2021/12/19 12:40:25;;;;;;;13.18;7.03;;;;;;;;;;5033166;28;20024;-67
2021/12/19 12:42:59;;;;;;;12.30;7.20;;;;;;;;;;5032419;28;20032;-69
2021/12/19 12:45:26;;;;;;;8.13;6.07;;;;;;;;;;5033483;28;20044;-67
2021/12/19 12:47:52;;;;;;;11.73;6.43;;;;;;;;;;5034513;28;20029;-68
2021/12/19 12:50:18;;;;;;;10.80;5.68;;;;;;;;;;5034586;28;20463;-68
2021/12/19 12:52:44;;;;;;;14.05;5.55;;;;;;;;;;5034152;28;20037;-67
2021/12/19 12:55:10;;;;;;;7.68;5.10;;;;;;;;;;5034251;28;20086;-67
2021/12/19 12:57:39;;;;;;;8.68;5.00;;;;;;;;;;5033078;28;20476;-68
2021/12/19 13:00:05;;;;;;;10.05;5.10;;;;;;;;;;5032841;28;20028;-69
2021/12/19 13:02:42;;;;;;;6.68;5.10;;;;;;;;;;5031975;28;20059;-67
2021/12/19 13:05:12;;;;;;;10.43;4.72;;;;;;;;;;5032612;28;20410;-68
2021/12/19 13:07:38;;;;;;;11.93;4.97;;;;;;;;;;5034884;28;20115;-68
2021/12/19 13:10:05;;;;;;;8.35;5.60;;;;;;;;;;5034358;28;20025;-68
2021/12/19 13:12:39;;;;;;;11.15;5.82;;;;;;;;;;5034641;28;20112;-68
2021/12/19 13:15:07;;;;;;;9.90;6.50;;;;;;;;;;5033365;28;20029;-68
2021/12/19 13:17:37;;;;;;;7.93;6.22;;;;;;;;;;5034483;28;20048;-68
2021/12/19 13:20:11;;;;;;;15.48;6.90;;;;;;;;;;5034278;28;20025;-68
2021/12/19 13:22:37;;;;;;;12.68;6.10;;;;;;;;;;5033775;28;20022;-67
2021/12/19 13:25:18;;;;;;;10.93;6.15;;;;;;;;;;5032717;28;20014;-67
2021/12/19 13:28:10;;;;;;;10.82;6.32;;;;;;;;;;5033445;28;20459;-68
2021/12/19 13:30:37;;;;;;;9.23;6.10;;;;;;;;;;5029763;28;20045;-67
2021/12/19 13:33:05;;;;;;;10.68;5.70;;;;;;;;;;5033244;28;20052;-67
2021/12/19 13:35:35;;;;;;;9.13;5.35;;;;;;;;;;5034191;28;20460;-66
2021/12/19 13:38:06;;;;;;;14.25;5.93;;;;;;;;;;5032945;28;20033;-67
2021/12/19 13:40:32;;;;;;;8.73;4.57;;;;;;;;;;5033529;28;20101;-67
2021/12/19 13:43:00;;;;;;;9.93;5.63;;;;;;;;;;5031643;28;20542;-67
2021/12/19 13:45:43;;;;;;;7.10;4.78;;;;;;;;;;5030956;28;20124;-68
2021/12/19 13:48:29;;;;;;;9.30;4.97;;;;;;;;;;5033415;28;20399;-67
2021/12/19 13:51:11;;;;;;;6.93;4.75;;;;;;;;;;5033672;28;20427;-68
2021/12/19 13:53:39;;;;;;;6.32;4.38;;;;;;;;;;5031309;28;20029;-67
2021/12/19 13:56:06;;;;;;;7.47;4.35;;;;;;;;;;5033606;28;20036;-67
2021/12/19 13:58:35;;;;;;;8.43;3.92;;;;;;;;;;5033362;28;20026;-67
2021/12/19 14:01:10;;;;;;;7.70;4.30;;;;;;;;;;5033446;28;20087;-67
2021/12/19 14:03:43;;;;;;;6.65;4.35;;;;;;;;;;5031171;28;20243;-69
2021/12/19 14:06:10;;;;;;;5.25;3.65;;;;;;;;;;5033105;28;20018;-69
2021/12/19 14:08:37;;;;;;;4.53;3.40;;;;;;;;;;5033116;28;20538;-69
2021/12/19 14:11:03;;;;;;;4.93;3.67;;;;;;;;;;5033352;28;20025;-70
2021/12/19 14:13:34;;;;;;;4.97;3.17;;;;;;;;;;5032326;28;20406;-70
2021/12/19 14:16:01;;;;;;;4.95;3.63;;;;;;;;;;5032763;28;20029;-70
2021/12/19 14:18:27;;;;;;;5.28;3.10;;;;;;;;;;5031591;28;20071;-70
2021/12/19 14:20:53;;;;;;;7.10;3.35;;;;;;;;;;5033073;28;20018;-70
2021/12/19 14:23:19;;;;;;;4.97;3.47;;;;;;;;;;5032205;28;20371;-69
2021/12/19 14:25:45;;;;;;;6.03;3.80;;;;;;;;;;5032773;28;20364;-70
2021/12/19 14:28:22;;;;;;;6.78;3.30;;;;;;;;;;5033017;28;20033;-70
2021/12/19 14:31:02;;;;;;;4.25;3.53;;;;;;;;;;5031542;28;20022;-70
2021/12/19 14:33:29;;;;;;;4.60;3.38;;;;;;;;;;5031951;28;20030;-70
2021/12/19 14:35:55;;;;;;;5.45;3.90;;;;;;;;;;5032524;28;20529;-70
2021/12/19 14:38:22;;;;;;;6.63;3.08;;;;;;;;;;5032287;28;20033;-70
2021/12/19 14:40:48;;;;;;;4.03;3.13;;;;;;;;;;5031154;28;20033;-70
2021/12/19 14:43:18;;;;;;;5.57;3.75;;;;;;;;;;5031637;28;20025;-71
2021/12/19 14:45:46;;;;;;;4.03;3.10;;;;;;;;;;5032463;28;20201;-69
2021/12/19 14:48:18;;;;;;;5.85;3.17;;;;;;;;;;5032348;28;20100;-70
2021/12/19 14:50:47;;;;;;;5.10;3.08;;;;;;;;;;5032534;28;20026;-71
2021/12/19 14:53:12;;;;;;;6.60;3.58;;;;;;;;;;5031467;28;20029;-69
2021/12/19 14:55:44;;;;;;;4.22;3.45;;;;;;;;;;5030923;28;20301;-69
2021/12/19 14:58:10;;;;;;;9.52;4.13;;;;;;;;;;5031117;28;20029;-69
2021/12/19 15:00:37;;;;;;;6.38;4.15;;;;;;;;;;5023917;28;20026;-73
2021/12/19 15:03:04;;;;;;;5.20;3.72;;;;;;;;;;5021984;28;20026;-77
2021/12/19 15:05:32;;;;;;;5.95;3.40;;;;;;;;;;5036287;28;20056;-76
2021/12/19 15:07:58;;;;;;;92.50;42.53;;;;;;;;;;5032035;28;20036;-75
2021/12/19 15:10:24;;;;;;;138.90;60.83;;;;;;;;;;5031425;28;20037;-75
2021/12/19 15:12:50;;;;;;;175.40;76.57;;;;;;;;;;5013332;28;20117;-74
2021/12/19 15:15:16;;;;;;;246.57;101.72;;;;;;;;;;5031420;28;20434;-74
2021/12/19 15:17:43;;;;;;;160.88;66.03;;;;;;;;;;5030873;28;20157;-75
2021/12/19 15:20:09;;;;;;;136.43;52.42;;;;;;;;;;5029633;28;20428;-74
2021/12/19 15:22:37;;;;;;;82.28;30.85;;;;;;;;;;5031408;28;20462;-74
2021/12/19 15:25:04;;;;;;;141.18;59.75;;;;;;;;;;5030639;28;20017;-74
2021/12/19 15:27:30;;;;;;;123.57;48.40;;;;;;;;;;5031333;28;20022;-74
2021/12/19 15:29:57;;;;;;;258.75;105.63;;;;;;;;;;5031355;28;20048;-75
2021/12/19 15:32:23;;;;;;;36.40;16.15;;;;;;;;;;5031115;28;20510;-73